Time;durP1;ratioP1;P1;durP2;ratioP2;P2;SDS_P1;SDS_P2;PMS_P1;PMS_P2;Temp;Humidity;BMP_temperature;BMP_pressure;BME280_temperature;BME280_humidity;BME280_pressure;Samples;Min_cycle;Max_cycle;Signal;HPM_P1;HPM_P2
2022/10/27 00:01:57;;;;;;;17.60;5.07;;;11.70;99.90;;;;;;5059561;28;20666;-75
2022/10/27 00:04:42;;;;;;;11.33;5.30;;;11.80;99.90;;;;;;5059963;28;21011;-75
2022/10/27 00:07:28;;;;;;;12.40;4.83;;;11.70;99.90;;;;;;5063660;28;20543;-75
2022/10/27 00:10:16;;;;;;;6.43;4.43;;;11.60;99.90;;;;;;5065175;28;20505;-75
2022/10/27 00:13:02;;;;;;;21.60;5.50;;;11.50;99.90;;;;;;5066029;28;20527;-75
2022/10/27 00:15:56;;;;;;;16.97;4.40;;;11.60;99.90;;;;;;5056745;28;20467;-75
2022/10/27 00:18:42;;;;;;;6.63;4.83;;;11.60;99.90;;;;;;5069835;28;20439;-75
2022/10/27 00:21:27;;;;;;;15.97;4.97;;;11.60;99.90;;;;;;5068256;28;20451;-75
2022/10/27 00:24:13;;;;;;;12.10;5.30;;;11.70;99.90;;;;;;5066693;28;20458;-75
2022/10/27 00:27:00;;;;;;;8.80;5.03;;;11.80;99.90;;;;;;5064322;28;20603;-75
2022/10/27 00:29:46;;;;;;;50.23;5.87;;;11.90;99.90;;;;;;5054624;28;20749;-75
2022/10/27 00:32:31;;;;;;;49.00;5.30;;;11.80;99.90;;;;;;5071039;28;20491;-75
2022/10/27 00:35:17;;;;;;;17.37;6.13;;;11.50;99.90;;;;;;5063975;28;20485;-75
2022/10/27 00:38:02;;;;;;;15.50;4.53;;;11.50;99.90;;;;;;5054703;28;20395;-75
2022/10/27 00:40:49;;;;;;;4.90;4.13;;;11.40;99.90;;;;;;5054068;28;20489;-75
2022/10/27 00:43:38;;;;;;;5.70;4.40;;;11.40;99.90;;;;;;5059172;28;20431;-75
2022/10/27 00:46:31;;;;;;;10.20;3.80;;;11.50;99.90;;;;;;5055998;28;20393;-75
2022/10/27 00:49:22;;;;;;;19.90;4.60;;;11.60;99.90;;;;;;5054171;28;20447;-75
2022/10/27 00:52:19;;;;;;;10.30;5.03;;;11.60;99.90;;;;;;5055603;28;20401;-75
2022/10/27 00:55:08;;;;;;;10.73;5.70;;;11.60;99.90;;;;;;5056121;28;20456;-75
2022/10/27 00:57:57;;;;;;;8.03;4.67;;;11.70;99.90;;;;;;5057998;28;20906;-75
2022/10/27 01:00:44;;;;;;;6.90;3.70;;;11.70;99.90;;;;;;5057882;28;20565;-75
2022/10/27 01:03:31;;;;;;;7.57;3.63;;;11.70;99.90;;;;;;5074179;28;20405;-75
2022/10/27 01:06:16;;;;;;;5.77;4.10;;;11.50;99.90;;;;;;5059931;28;20439;-75
2022/10/27 01:09:03;;;;;;;14.93;4.20;;;11.20;99.90;;;;;;5074033;28;20458;-75
2022/10/27 01:11:48;;;;;;;7.47;4.57;;;11.20;99.90;;;;;;5074074;28;20463;-75
2022/10/27 01:14:34;;;;;;;16.83;4.70;;;11.10;99.90;;;;;;5067801;28;20433;-75
2022/10/27 01:17:40;;;;;;;35.30;4.90;;;11.00;99.90;;;;;;5061531;28;20463;-75
2022/10/27 01:21:00;;;;;;;8.20;5.00;;;11.00;99.90;;;;;;5060927;28;20960;-75
2022/10/27 01:24:04;;;;;;;7.97;4.83;;;11.10;99.90;;;;;;5062605;28;21098;-75
2022/10/27 01:26:52;;;;;;;9.00;4.80;;;11.30;99.90;;;;;;5067946;28;20781;-75
2022/10/27 01:29:55;;;;;;;7.97;5.70;;;11.40;99.90;;;;;;5059482;28;20985;-75
2022/10/27 01:32:57;;;;;;;32.33;5.90;;;11.50;99.90;;;;;;5067298;28;20830;-75
2022/10/27 01:35:51;;;;;;;7.27;5.30;;;11.60;99.90;;;;;;5068009;28;20429;-75
2022/10/27 01:38:45;;;;;;;21.97;5.60;;;11.60;99.90;;;;;;5071878;28;20982;-75
2022/10/27 01:41:36;;;;;;;13.23;5.40;;;11.60;99.90;;;;;;5072634;28;20925;-75
2022/10/27 01:44:27;;;;;;;107.70;6.67;;;11.60;99.90;;;;;;5065102;28;20521;-75
2022/10/27 01:47:14;;;;;;;27.23;5.80;;;11.60;99.90;;;;;;5066662;28;20470;-75
2022/10/27 01:50:02;;;;;;;34.13;6.30;;;11.40;99.90;;;;;;5061189;28;20472;-75
2022/10/27 01:52:49;;;;;;;18.13;5.50;;;11.40;99.90;;;;;;5065334;28;20491;-75
2022/10/27 01:55:45;;;;;;;55.40;6.20;;;11.40;99.90;;;;;;5062715;28;20398;-75
2022/10/27 01:58:52;;;;;;;21.47;6.10;;;11.30;99.90;;;;;;5069598;28;20412;-75
2022/10/27 02:01:50;;;;;;;9.87;6.00;;;11.30;99.90;;;;;;5064369;28;20421;-75
2022/10/27 02:04:45;;;;;;;10.80;5.17;;;11.40;99.90;;;;;;5065785;28;20435;-75
2022/10/27 02:07:41;;;;;;;22.27;5.37;;;11.50;99.90;;;;;;5067314;28;21324;-76
2022/10/27 02:10:32;;;;;;;9.40;5.53;;;11.50;99.90;;;;;;5066501;28;20570;-75
2022/10/27 02:13:18;;;;;;;10.13;5.90;;;11.50;99.90;;;;;;5060175;28;20465;-75
2022/10/27 02:16:07;;;;;;;14.13;4.47;;;11.60;99.90;;;;;;5063184;28;20451;-75
2022/10/27 02:18:58;;;;;;;14.30;4.80;;;11.60;99.90;;;;;;5067307;28;20956;-76
2022/10/27 02:21:46;;;;;;;6.97;5.13;;;11.40;99.90;;;;;;5064971;28;20447;-75
2022/10/27 02:24:33;;;;;;;61.33;5.70;;;11.40;99.90;;;;;;5056758;28;20422;-75
2022/10/27 02:27:29;;;;;;;21.73;5.00;;;11.50;99.90;;;;;;5065257;28;20462;-75
2022/10/27 02:30:15;;;;;;;8.00;5.10;;;11.50;99.90;;;;;;5072071;28;20897;-75
2022/10/27 02:33:02;;;;;;;6.40;4.70;;;11.50;99.90;;;;;;5060823;28;20521;-75
2022/10/27 02:35:47;;;;;;;6.83;5.10;;;11.50;99.90;;;;;;5060528;28;20428;-75
2022/10/27 02:38:33;;;;;;;42.90;5.30;;;11.50;99.90;;;;;;5052103;28;20402;-75
2022/10/27 02:41:20;;;;;;;9.70;4.60;;;11.50;99.90;;;;;;5051957;28;20527;-75
2022/10/27 02:44:06;;;;;;;10.90;5.30;;;11.40;99.90;;;;;;5056830;28;20950;-75
2022/10/27 02:46:51;;;;;;;8.73;4.80;;;11.30;99.90;;;;;;5071784;28;20505;-75
2022/10/27 02:49:37;;;;;;;22.53;5.07;;;11.30;99.90;;;;;;5071897;28;20432;-75
2022/10/27 02:52:22;;;;;;;23.23;5.10;;;11.30;99.90;;;;;;5070043;28;20815;-75
2022/10/27 02:55:09;;;;;;;32.50;4.67;;;11.20;99.90;;;;;;5059163;28;20403;-75
2022/10/27 02:57:56;;;;;;;11.50;5.03;;;11.00;99.90;;;;;;5065397;28;20421;-75
2022/10/27 03:00:41;;;;;;;19.73;4.63;;;10.90;99.90;;;;;;5065423;28;20572;-75
2022/10/27 03:03:27;;;;;;;16.93;5.80;;;11.00;99.90;;;;;;5056833;28;20437;-75
2022/10/27 03:06:13;;;;;;;14.10;4.30;;;11.10;99.90;;;;;;5060645;28;20458;-75
2022/10/27 03:08:58;;;;;;;18.67;4.40;;;11.10;99.90;;;;;;5068321;28;20592;-75
2022/10/27 03:11:44;;;;;;;16.07;3.80;;;11.00;99.90;;;;;;5064027;28;20435;-75
2022/10/27 03:14:31;;;;;;;9.60;4.33;;;11.00;99.90;;;;;;5064380;28;20487;-75
2022/10/27 03:17:17;;;;;;;8.20;3.40;;;11.00;99.90;;;;;;5069185;28;20446;-75
2022/10/27 03:20:02;;;;;;;22.23;3.80;;;11.10;99.90;;;;;;5069343;28;20574;-75
2022/10/27 03:22:48;;;;;;;7.20;4.40;;;11.10;99.90;;;;;;5059298;28;20922;-75
2022/10/27 03:25:35;;;;;;;14.53;3.60;;;11.00;99.90;;;;;;5066638;28;20956;-75
2022/10/27 03:28:21;;;;;;;6.80;3.90;;;11.00;99.90;;;;;;5064353;28;20946;-75
2022/10/27 03:31:08;;;;;;;8.53;4.20;;;10.90;99.90;;;;;;5058688;28;20444;-75
2022/10/27 03:33:54;;;;;;;4.00;3.30;;;10.90;99.90;;;;;;5063062;28;20425;-75
2022/10/27 03:36:39;;;;;;;7.47;3.33;;;11.00;99.90;;;;;;5067173;28;20425;-75
2022/10/27 03:39:25;;;;;;;5.43;3.67;;;11.00;99.90;;;;;;5063653;28;20472;-76
2022/10/27 03:42:11;;;;;;;13.03;4.10;;;10.90;99.90;;;;;;5058503;28;20443;-75
2022/10/27 03:44:57;;;;;;;5.30;3.63;;;11.00;99.90;;;;;;5065671;28;20521;-75
2022/10/27 03:47:44;;;;;;;6.93;3.20;;;11.00;99.90;;;;;;5068281;28;20444;-75
2022/10/27 03:50:30;;;;;;;11.40;3.00;;;11.10;99.90;;;;;;5065902;28;20441;-75
2022/10/27 03:53:17;;;;;;;13.00;3.00;;;11.10;99.90;;;;;;5060916;28;20454;-75
2022/10/27 03:56:02;;;;;;;11.87;3.40;;;11.20;99.90;;;;;;5064239;28;21094;-75
2022/10/27 03:58:47;;;;;;;5.60;2.97;;;11.00;99.90;;;;;;5064419;28;20883;-75
2022/10/27 04:01:35;;;;;;;13.00;3.23;;;10.90;99.90;;;;;;5060008;28;20455;-75
2022/10/27 04:04:22;;;;;;;11.77;3.20;;;10.80;99.90;;;;;;5066464;28;20459;-75
2022/10/27 04:07:08;;;;;;;10.80;3.37;;;10.70;99.90;;;;;;5063617;28;20437;-75
2022/10/27 04:09:53;;;;;;;5.73;4.27;;;10.60;99.90;;;;;;5087467;22;20569;-73
2022/10/27 04:12:47;;;;;;;4.80;3.23;;;10.50;99.90;;;;;;5105546;28;20498;-73
2022/10/27 04:15:32;;;;;;;8.40;3.63;;;10.60;99.90;;;;;;5108392;28;20941;-75
2022/10/27 04:18:18;;;;;;;5.60;3.57;;;10.60;99.90;;;;;;5109295;28;20411;-73
2022/10/27 04:21:06;;;;;;;10.27;3.97;;;10.60;99.90;;;;;;5089324;28;20472;-73
2022/10/27 04:23:52;;;;;;;47.50;4.20;;;10.60;99.90;;;;;;5086069;28;20792;-74
2022/10/27 04:26:38;;;;;;;9.57;3.63;;;10.50;99.90;;;;;;5083015;28;20552;-73
2022/10/27 04:29:24;;;;;;;7.27;3.73;;;10.40;99.90;;;;;;5090536;28;20486;-73
2022/10/27 04:32:10;;;;;;;7.73;4.23;;;10.60;99.90;;;;;;5080693;28;20429;-73
2022/10/27 04:34:56;;;;;;;5.30;4.33;;;10.70;99.90;;;;;;5070413;28;20438;-73
2022/10/27 04:37:43;;;;;;;17.73;4.57;;;10.90;99.90;;;;;;5070924;28;20474;-74
2022/10/27 04:40:28;;;;;;;5.93;4.77;;;10.90;99.90;;;;;;5076052;28;20417;-73
2022/10/27 04:43:14;;;;;;;10.63;3.67;;;11.00;99.90;;;;;;5088607;28;20425;-73
2022/10/27 04:45:59;;;;;;;10.80;4.10;;;11.00;99.90;;;;;;5090561;28;20392;-73
2022/10/27 04:48:45;;;;;;;9.93;3.40;;;11.00;99.90;;;;;;5091423;28;20464;-73
2022/10/27 04:51:31;;;;;;;23.90;4.60;;;11.00;99.90;;;;;;5084082;28;21070;-73
2022/10/27 04:54:18;;;;;;;17.03;3.83;;;10.90;99.90;;;;;;5076015;28;20960;-73
2022/10/27 04:57:03;;;;;;;12.37;3.77;;;10.80;99.90;;;;;;5092372;28;20989;-73
2022/10/27 04:59:49;;;;;;;8.90;3.50;;;10.70;99.90;;;;;;5082332;28;20576;-73
2022/10/27 05:02:34;;;;;;;23.43;3.93;;;10.40;99.90;;;;;;5087548;28;20557;-73
2022/10/27 05:05:20;;;;;;;23.30;3.90;;;10.40;99.90;;;;;;5070135;28;20749;-74
2022/10/27 05:08:06;;;;;;;6.40;3.40;;;10.50;99.90;;;;;;5088164;28;20473;-73
2022/10/27 05:10:53;;;;;;;14.00;3.57;;;10.60;99.90;;;;;;5086168;28;20718;-74
2022/10/27 05:13:38;;;;;;;3.50;2.93;;;10.60;99.90;;;;;;5082549;28;20504;-73
2022/10/27 05:16:24;;;;;;;7.70;3.07;;;10.70;99.90;;;;;;5093888;28;20417;-75
2022/10/27 05:19:09;;;;;;;5.57;3.70;;;10.70;99.90;;;;;;5099469;28;21102;-73
2022/10/27 05:21:54;;;;;;;3.87;3.00;;;10.70;99.90;;;;;;5087606;28;20424;-75
2022/10/27 05:24:40;;;;;;;4.40;3.03;;;10.70;99.90;;;;;;5086808;28;20492;-75
2022/10/27 05:27:27;;;;;;;5.37;3.30;;;10.70;99.90;;;;;;5085478;28;20449;-73
2022/10/27 05:30:13;;;;;;;6.20;3.33;;;10.80;99.90;;;;;;5092828;28;20850;-73
2022/10/27 05:32:59;;;;;;;6.73;2.93;;;10.90;99.90;;;;;;5088235;28;21076;-73
2022/10/27 05:35:45;;;;;;;9.87;3.53;;;10.90;99.90;;;;;;5091038;28;20465;-73
2022/10/27 05:38:30;;;;;;;4.03;3.10;;;10.80;99.90;;;;;;5094844;28;20527;-73
2022/10/27 05:41:17;;;;;;;4.70;3.13;;;10.70;99.90;;;;;;5092252;28;21072;-73
2022/10/27 05:44:04;;;;;;;3.10;2.40;;;10.70;99.90;;;;;;5089245;28;20975;-73
2022/10/27 05:46:50;;;;;;;6.73;3.80;;;10.70;99.90;;;;;;5088414;28;20926;-73
2022/10/27 05:49:36;;;;;;;23.83;3.50;;;10.80;99.90;;;;;;5084468;28;20803;-73
2022/10/27 05:52:21;;;;;;;3.80;2.80;;;10.80;99.90;;;;;;5084292;28;20439;-73
2022/10/27 05:55:08;;;;;;;9.93;3.10;;;10.80;99.90;;;;;;5085920;28;20500;-74
2022/10/27 05:57:54;;;;;;;22.77;3.03;;;10.70;99.90;;;;;;5084762;28;20418;-73
2022/10/27 06:00:40;;;;;;;22.77;3.37;;;10.50;99.90;;;;;;5077736;28;21083;-73
2022/10/27 06:03:27;;;;;;;4.93;2.90;;;10.50;99.90;;;;;;5091038;28;20496;-73
2022/10/27 06:06:12;;;;;;;10.30;2.93;;;10.40;99.90;;;;;;5092601;28;20422;-73
2022/10/27 06:08:58;;;;;;;4.53;2.67;;;10.30;99.90;;;;;;5072948;28;20462;-73
2022/10/27 06:11:43;;;;;;;3.03;2.60;;;10.30;99.90;;;;;;5083759;28;20603;-74
2022/10/27 06:14:29;;;;;;;3.80;3.00;;;10.30;99.90;;;;;;5079836;28;20460;-75
2022/10/27 06:17:16;;;;;;;12.13;2.97;;;10.40;99.90;;;;;;5088188;28;20421;-75
2022/10/27 06:20:02;;;;;;;6.60;2.80;;;10.40;99.90;;;;;;5080494;28;20504;-73
2022/10/27 06:22:47;;;;;;;12.07;2.60;;;10.40;99.90;;;;;;5089631;28;20461;-74
2022/10/27 06:25:34;;;;;;;6.17;2.83;;;10.30;99.90;;;;;;5093101;28;20449;-75
2022/10/27 06:28:21;;;;;;;6.90;3.37;;;10.30;99.90;;;;;;5091236;28;20466;-73
2022/10/27 06:31:06;;;;;;;7.00;3.77;;;10.20;99.90;;;;;;5080498;28;20482;-73
2022/10/27 06:33:54;;;;;;;7.93;3.00;;;10.30;99.90;;;;;;5076162;28;21024;-73
2022/10/27 06:36:39;;;;;;;4.93;3.70;;;10.30;99.90;;;;;;5072469;28;20389;-73
2022/10/27 06:39:27;;;;;;;6.30;3.20;;;10.30;99.90;;;;;;5071601;28;20442;-75
2022/10/27 06:42:12;;;;;;;3.80;3.20;;;10.30;99.90;;;;;;5081436;28;20543;-73
2022/10/27 06:44:58;;;;;;;11.57;3.97;;;10.40;99.90;;;;;;5084573;28;20750;-73
2022/10/27 06:47:44;;;;;;;4.17;3.27;;;10.40;99.90;;;;;;5071203;28;20557;-73
2022/10/27 06:50:31;;;;;;;3.60;3.00;;;10.50;99.90;;;;;;5075198;28;20493;-74
2022/10/27 06:53:16;;;;;;;8.17;3.67;;;10.50;99.90;;;;;;5072782;28;20811;-73
2022/10/27 06:56:02;;;;;;;6.30;3.53;;;10.50;99.90;;;;;;5083547;28;20425;-73
2022/10/27 06:58:48;;;;;;;9.23;3.77;;;10.50;99.90;;;;;;5091896;28;20445;-73
2022/10/27 07:01:33;;;;;;;5.67;3.60;;;10.50;99.90;;;;;;5085363;28;20431;-73
2022/10/27 07:04:19;;;;;;;4.70;3.23;;;10.60;99.90;;;;;;5074689;28;20418;-73
2022/10/27 07:07:06;;;;;;;14.87;3.57;;;10.50;99.90;;;;;;5092144;28;20798;-73
2022/10/27 07:09:52;;;;;;;3.80;2.77;;;10.40;99.90;;;;;;5088762;28;20515;-73
2022/10/27 07:12:37;;;;;;;4.47;3.13;;;10.40;99.90;;;;;;5094274;28;20445;-73
2022/10/27 07:15:24;;;;;;;3.97;3.23;;;10.50;99.90;;;;;;5083329;28;20883;-73
2022/10/27 07:18:11;;;;;;;11.47;2.80;;;10.40;99.90;;;;;;5098505;28;20415;-75
2022/10/27 07:20:57;;;;;;;3.70;2.80;;;10.60;99.90;;;;;;5084862;28;20828;-72
2022/10/27 07:23:44;;;;;;;5.63;3.13;;;10.60;99.90;;;;;;5089620;28;20457;-73
2022/10/27 07:26:29;;;;;;;6.53;3.13;;;10.60;99.90;;;;;;5093935;28;20445;-74
2022/10/27 07:29:15;;;;;;;9.63;3.17;;;10.70;99.90;;;;;;5081679;28;20457;-75
2022/10/27 07:32:00;;;;;;;6.80;3.40;;;10.70;99.90;;;;;;5087134;28;20424;-75
2022/10/27 07:34:46;;;;;;;7.13;3.90;;;10.70;99.90;;;;;;5078619;28;20393;-73
2022/10/27 07:37:32;;;;;;;6.50;3.00;;;10.80;99.90;;;;;;5084248;28;20420;-75
2022/10/27 07:40:20;;;;;;;6.57;3.63;;;10.90;99.90;;;;;;5089887;28;20453;-75
2022/10/27 07:43:06;;;;;;;9.57;3.50;;;11.00;99.90;;;;;;5091303;28;20547;-73
2022/10/27 07:45:52;;;;;;;6.20;4.30;;;11.00;99.90;;;;;;5088840;28;20947;-75
2022/10/27 07:48:38;;;;;;;5.70;3.30;;;11.10;99.90;;;;;;5088468;28;20519;-73
2022/10/27 07:51:24;;;;;;;8.07;3.67;;;11.10;99.90;;;;;;5079471;28;20474;-75
2022/10/27 07:54:09;;;;;;;5.93;3.63;;;11.10;99.90;;;;;;5083940;28;20429;-73
2022/10/27 07:56:56;;;;;;;7.63;4.43;;;11.00;99.90;;;;;;5096502;28;20407;-75
2022/10/27 07:59:42;;;;;;;5.17;3.77;;;11.00;99.90;;;;;;5082623;28;20458;-75
2022/10/27 08:02:28;;;;;;;4.80;4.20;;;11.10;99.90;;;;;;5083025;28;20471;-75
2022/10/27 08:05:13;;;;;;;4.23;3.83;;;11.10;99.90;;;;;;5083098;28;20454;-75
2022/10/27 08:07:59;;;;;;;5.77;3.50;;;11.20;99.90;;;;;;5086807;28;20438;-75
2022/10/27 08:10:47;;;;;;;6.33;3.57;;;11.20;99.90;;;;;;5092791;28;20476;-75
2022/10/27 08:13:34;;;;;;;4.57;3.67;;;11.30;99.90;;;;;;5084775;28;20417;-72
2022/10/27 08:16:20;;;;;;;5.00;3.60;;;11.40;99.90;;;;;;5086554;28;20523;-75
2022/10/27 08:19:06;;;;;;;4.53;4.13;;;11.50;99.90;;;;;;5086007;28;20519;-75
2022/10/27 08:21:51;;;;;;;4.07;3.60;;;11.60;99.90;;;;;;5088724;28;20427;-75
2022/10/27 08:24:37;;;;;;;4.07;3.63;;;11.70;99.90;;;;;;5078020;28;20425;-75
2022/10/27 08:27:23;;;;;;;7.60;3.87;;;11.80;99.90;;;;;;5076392;28;20396;-74
2022/10/27 08:30:10;;;;;;;4.53;3.33;;;11.90;99.90;;;;;;5072743;28;20511;-75
2022/10/27 08:32:57;;;;;;;5.30;3.70;;;12.00;99.90;;;;;;5070572;28;20411;-74
2022/10/27 08:35:43;;;;;;;4.30;3.87;;;12.10;99.90;;;;;;5070462;28;20425;-74
2022/10/27 08:38:31;;;;;;;4.90;4.40;;;12.20;99.90;;;;;;5072927;28;20608;-74
2022/10/27 08:41:23;;;;;;;4.40;3.90;;;12.40;99.90;;;;;;5088104;28;20429;-75
2022/10/27 08:44:24;;;;;;;7.43;3.60;;;12.50;99.90;;;;;;5076704;28;20440;-75
2022/10/27 08:47:19;;;;;;;6.80;4.10;;;12.70;99.90;;;;;;5074185;28;20419;-75
2022/10/27 08:50:12;;;;;;;11.00;4.40;;;12.70;99.90;;;;;;5077674;28;20481;-75
2022/10/27 08:53:02;;;;;;;13.53;5.00;;;12.90;99.90;;;;;;5074716;28;20438;-75
2022/10/27 08:55:52;;;;;;;8.00;4.60;;;13.00;99.90;;;;;;5089873;28;20946;-74
2022/10/27 08:58:40;;;;;;;6.37;4.37;;;13.10;99.90;;;;;;5082080;28;20652;-75
2022/10/27 09:01:34;;;;;;;7.70;5.00;;;13.20;99.90;;;;;;5083292;28;20412;-73
2022/10/27 09:04:32;;;;;;;7.90;4.70;;;13.40;99.90;;;;;;5077104;28;20453;-75
2022/10/27 09:07:24;;;;;;;4.80;3.93;;;13.50;99.90;;;;;;5089932;28;20404;-74
2022/10/27 09:10:20;;;;;;;5.47;4.10;;;13.70;99.90;;;;;;5081725;28;20445;-75
2022/10/27 09:13:12;;;;;;;10.47;5.53;;;13.90;99.90;;;;;;5087816;28;20443;-74
2022/10/27 09:16:04;;;;;;;7.00;5.20;;;14.10;99.90;;;;;;5091928;28;20440;-74
2022/10/27 09:18:54;;;;;;;9.13;5.47;;;14.40;99.90;;;;;;5080514;28;20454;-74
2022/10/27 09:21:43;;;;;;;7.43;5.83;;;14.60;99.90;;;;;;5087940;28;20527;-74
2022/10/27 09:24:31;;;;;;;17.40;6.13;;;14.80;99.90;;;;;;5083107;28;20574;-75
2022/10/27 09:27:17;;;;;;;11.90;5.93;;;15.10;99.90;;;;;;5091306;28;20421;-74
2022/10/27 09:30:06;;;;;;;14.43;5.73;;;15.30;99.90;;;;;;5082939;28;20478;-74
2022/10/27 09:32:55;;;;;;;8.70;4.70;;;15.50;99.90;;;;;;5082376;28;20827;-74
2022/10/27 09:35:41;;;;;;;13.87;5.07;;;15.80;99.90;;;;;;5093115;28;20975;-75
2022/10/27 09:38:28;;;;;;;14.53;4.07;;;16.00;99.90;;;;;;5074440;28;20397;-75
2022/10/27 09:41:14;;;;;;;8.33;4.27;;;16.30;99.90;;;;;;5073415;28;20435;-75
2022/10/27 09:43:59;;;;;;;7.83;4.40;;;16.50;99.90;;;;;;5092631;28;20500;-75
2022/10/27 09:46:49;;;;;;;6.27;3.70;;;16.80;99.90;;;;;;5081273;28;20443;-73
2022/10/27 09:49:37;;;;;;;12.00;4.40;;;17.00;99.90;;;;;;5086043;28;20452;-73
2022/10/27 09:52:29;;;;;;;9.97;3.67;;;17.30;99.90;;;;;;5079705;28;20542;-74
2022/10/27 09:55:18;;;;;;;6.40;3.70;;;17.60;99.90;;;;;;5084695;28;20515;-74
2022/10/27 09:58:03;;;;;;;9.17;3.90;;;17.80;99.90;;;;;;5083033;28;20458;-73
2022/10/27 10:00:57;;;;;;;9.60;3.90;;;18.00;99.90;;;;;;5091747;28;20462;-72
2022/10/27 10:03:54;;;;;;;11.30;3.53;;;18.20;99.90;;;;;;5080832;28;20505;-72
2022/10/27 10:06:40;;;;;;;10.90;4.57;;;18.50;99.90;;;;;;5086498;28;20854;-73
2022/10/27 10:12:29;;;;;;;7.37;3.53;;;18.80;99.90;;;;;;5054771;28;20860;-73
2022/10/27 10:15:19;;;;;;;12.57;4.00;;;19.00;99.90;;;;;;5066987;28;20508;-74
2022/10/27 10:18:15;;;;;;;10.63;3.93;;;19.20;99.90;;;;;;5052664;28;20426;-73
2022/10/27 10:21:03;;;;;;;12.33;3.47;;;19.30;99.90;;;;;;5052584;28;20994;-73
2022/10/27 10:23:53;;;;;;;13.20;4.00;;;19.50;99.90;;;;;;5067614;28;20422;-73
2022/10/27 10:26:38;;;;;;;9.40;3.60;;;19.60;99.90;;;;;;5061223;28;20536;-74
2022/10/27 10:29:29;;;;;;;5.80;3.20;;;19.70;99.90;;;;;;5071134;28;20495;-74
2022/10/27 10:32:17;;;;;;;13.10;3.80;;;19.80;99.90;;;;;;5072566;28;20890;-73
2022/10/27 10:35:27;;;;;;;5.10;3.10;;;20.00;99.90;;;;;;5070093;28;20451;-74
2022/10/27 10:38:30;;;;;;;9.63;3.87;;;20.10;99.90;;;;;;5061258;28;20431;-74
2022/10/27 10:41:19;;;;;;;7.13;3.53;;;20.20;99.90;;;;;;5072508;28;20413;-74
2022/10/27 10:44:12;;;;;;;14.90;4.50;;;20.30;99.90;;;;;;5068532;28;20456;-75
2022/10/27 10:46:59;;;;;;;9.33;3.83;;;20.30;99.90;;;;;;5062011;28;20455;-75
2022/10/27 10:49:50;;;;;;;7.67;3.93;;;20.20;99.90;;;;;;5071988;28;20493;-75
2022/10/27 10:52:38;;;;;;;10.83;3.83;;;20.10;99.90;;;;;;5072205;28;20407;-75
2022/10/27 10:55:28;;;;;;;6.60;3.30;;;20.00;99.90;;;;;;5060427;28;20530;-75
2022/10/27 10:58:17;;;;;;;12.07;3.70;;;20.00;99.90;;;;;;5060169;28;20436;-75
2022/10/27 11:01:06;;;;;;;7.10;3.63;;;20.00;99.90;;;;;;5052013;28;20890;-75
2022/10/27 11:03:56;;;;;;;17.57;3.87;;;20.00;99.90;;;;;;5051858;28;20491;-75
2022/10/27 11:06:58;;;;;;;7.93;3.63;;;20.00;99.90;;;;;;5070412;28;20462;-75
2022/10/27 11:09:51;;;;;;;10.40;3.77;;;20.00;99.90;;;;;;5071907;28;20568;-75
2022/10/27 11:12:41;;;;;;;8.50;4.00;;;20.10;99.90;;;;;;5071880;28;20430;-74
2022/10/27 11:15:31;;;;;;;8.07;5.00;;;20.10;99.90;;;;;;5062608;28;20452;-75
2022/10/27 11:18:19;;;;;;;13.07;4.13;;;20.00;99.90;;;;;;5052192;28;20428;-75
2022/10/27 11:21:12;;;;;;;6.90;3.33;;;20.00;99.90;;;;;;5051767;28;20444;-75
2022/10/27 11:24:00;;;;;;;10.40;4.10;;;20.00;99.90;;;;;;5056172;28;20775;-75
2022/10/27 11:26:53;;;;;;;10.80;3.67;;;20.00;99.90;;;;;;5057686;28;20427;-75
2022/10/27 11:29:44;;;;;;;9.13;3.83;;;20.00;99.90;;;;;;5051600;28;20423;-75
2022/10/27 11:32:37;;;;;;;9.33;3.50;;;20.00;99.90;;;;;;5050986;28;20440;-75
2022/10/27 11:35:27;;;;;;;9.93;3.80;;;20.10;99.90;;;;;;5054384;28;20510;-75
2022/10/27 11:38:22;;;;;;;9.53;3.70;;;20.10;99.90;;;;;;5051484;28;21035;-75
2022/10/27 11:41:15;;;;;;;10.53;4.50;;;20.20;99.90;;;;;;5051602;28;20510;-75
2022/10/27 11:44:06;;;;;;;11.23;5.03;;;20.20;99.90;;;;;;5054489;28;20554;-75
2022/10/27 11:46:59;;;;;;;9.57;5.07;;;20.30;99.90;;;;;;5051939;28;20425;-75
2022/10/27 11:49:53;;;;;;;13.20;4.17;;;20.30;99.90;;;;;;5060014;28;20439;-77
2022/10/27 11:52:42;;;;;;;8.47;4.17;;;20.40;99.90;;;;;;5058849;28;20921;-77
2022/10/27 11:55:41;;;;;;;9.90;3.30;;;20.60;99.90;;;;;;5058992;28;20797;-77
2022/10/27 11:58:32;;;;;;;8.77;4.30;;;20.70;99.90;;;;;;5060928;28;20454;-77
2022/10/27 12:01:31;;;;;;;8.90;3.83;;;20.90;99.90;;;;;;5060648;28;20819;-79
2022/10/27 12:04:32;;;;;;;7.37;3.97;;;21.10;99.90;;;;;;5068328;28;20455;-78
2022/10/27 12:07:28;;;;;;;8.30;3.33;;;21.20;99.90;;;;;;5066133;28;20414;-78
2022/10/27 12:10:26;;;;;;;8.10;3.63;;;21.40;99.90;;;;;;5072776;28;20890;-79
2022/10/27 12:13:19;;;;;;;6.50;3.30;;;21.50;99.90;;;;;;5059817;28;21043;-78
2022/10/27 12:16:14;;;;;;;8.63;2.83;;;21.70;99.90;;;;;;5057603;28;20585;-78
2022/10/27 12:19:06;;;;;;;11.63;3.30;;;21.80;99.90;;;;;;5068690;28;20518;-78
2022/10/27 12:21:57;;;;;;;9.27;4.40;;;22.00;99.90;;;;;;5072655;28;20472;-78
2022/10/27 12:24:49;;;;;;;7.20;3.57;;;22.20;99.90;;;;;;5064822;28;20454;-78
2022/10/27 12:27:37;;;;;;;9.50;3.60;;;22.30;99.90;;;;;;5071318;28;20446;-77
2022/10/27 12:30:26;;;;;;;10.30;3.10;;;22.50;99.90;;;;;;5063471;28;20587;-77
2022/10/27 12:33:19;;;;;;;8.17;3.10;;;22.60;94.70;;;;;;5069276;28;20516;-77
2022/10/27 12:36:15;;;;;;;9.53;2.90;;;22.80;97.40;;;;;;5070094;28;20442;-77
2022/10/27 12:39:12;;;;;;;12.70;3.50;;;22.80;97.60;;;;;;5072222;28;20458;-78
2022/10/27 12:42:06;;;;;;;9.43;3.53;;;23.00;97.80;;;;;;5072511;28;20485;-77
2022/10/27 12:45:01;;;;;;;11.10;3.43;;;23.20;97.10;;;;;;5069531;28;20583;-77
2022/10/27 12:47:59;;;;;;;7.90;3.30;;;23.30;96.40;;;;;;5064744;28;20431;-78
2022/10/27 12:50:53;;;;;;;22.13;3.87;;;23.50;94.50;;;;;;5064041;28;20463;-77
2022/10/27 12:53:45;;;;;;;10.00;4.67;;;23.50;94.00;;;;;;5062888;28;20485;-77
2022/10/27 12:56:42;;;;;;;18.77;6.80;;;23.30;96.20;;;;;;5068295;28;20459;-74
2022/10/27 12:59:40;;;;;;;11.30;6.27;;;23.10;97.90;;;;;;5054382;28;20510;-74
2022/10/27 13:02:30;;;;;;;15.50;6.80;;;23.20;99.90;;;;;;5055594;28;20435;-74
2022/10/27 13:05:52;;;;;;;8.70;5.60;;;23.30;98.00;;;;;;5054182;28;20866;-74
2022/10/27 13:09:11;;;;;;;11.93;5.93;;;23.40;98.20;;;;;;5054323;28;20920;-74
2022/10/27 13:12:17;;;;;;;13.73;5.80;;;23.40;98.30;;;;;;5054008;28;20467;-74
2022/10/27 13:15:31;;;;;;;17.03;6.00;;;23.20;97.00;;;;;;5053581;28;20461;-74
2022/10/27 13:18:39;;;;;;;13.00;5.67;;;23.10;99.90;;;;;;5041187;28;20563;-74
2022/10/27 13:21:32;;;;;;;10.40;5.97;;;22.90;99.90;;;;;;5054071;28;20968;-73
2022/10/27 13:24:26;;;;;;;14.00;6.07;;;22.90;99.90;;;;;;5067216;28;20439;-74
2022/10/27 13:27:19;;;;;;;15.80;6.60;;;22.80;99.90;;;;;;5063026;28;20423;-74
2022/10/27 13:30:07;;;;;;;11.83;4.83;;;22.60;99.90;;;;;;5053755;28;20804;-74
2022/10/27 13:32:55;;;;;;;8.70;4.70;;;22.50;99.90;;;;;;5057159;28;20979;-73
2022/10/27 13:35:41;;;;;;;12.13;5.00;;;22.50;99.90;;;;;;5066269;28;20443;-72
2022/10/27 13:38:28;;;;;;;10.97;5.90;;;22.20;99.90;;;;;;5063223;28;20448;-72
2022/10/27 13:41:49;;;;;;;10.50;5.57;;;21.90;99.90;;;;;;5071437;28;20466;-72
2022/10/27 13:44:37;;;;;;;11.77;5.97;;;21.80;99.90;;;;;;5070107;28;20423;-72
2022/10/27 13:47:23;;;;;;;9.90;4.43;;;22.00;99.90;;;;;;5073028;28;20940;-72
2022/10/27 13:50:33;;;;;;;8.10;4.27;;;22.20;99.90;;;;;;5073635;28;20950;-72
2022/10/27 13:53:35;;;;;;;11.37;5.50;;;22.30;99.90;;;;;;5064781;28;20422;-71
2022/10/27 13:56:42;;;;;;;10.27;4.60;;;22.10;99.90;;;;;;5063874;28;20442;-72
2022/10/27 13:59:32;;;;;;;10.83;4.10;;;21.70;99.90;;;;;;5069468;28;20429;-72
2022/10/27 14:02:26;;;;;;;11.67;4.77;;;21.50;99.90;;;;;;5070809;28;20459;-72
2022/10/27 14:05:25;;;;;;;12.13;4.47;;;21.20;99.90;;;;;;5070276;28;20952;-72
2022/10/27 14:08:19;;;;;;;13.97;4.70;;;21.10;99.90;;;;;;5069613;28;20470;-72
2022/10/27 14:11:13;;;;;;;10.13;4.77;;;20.90;99.90;;;;;;5069557;28;20482;-71
2022/10/27 14:14:02;;;;;;;16.53;4.97;;;20.70;99.90;;;;;;5066512;28;20453;-71
2022/10/27 14:16:48;;;;;;;9.83;4.20;;;20.40;99.90;;;;;;5061526;28;20567;-72
2022/10/27 14:19:35;;;;;;;37.40;6.17;;;20.30;99.90;;;;;;5066671;28;20462;-72
2022/10/27 14:22:32;;;;;;;9.57;4.60;;;20.20;99.90;;;;;;5070427;28;20613;-72
2022/10/27 14:25:26;;;;;;;8.37;4.23;;;20.10;99.90;;;;;;5063026;28;20431;-72
2022/10/27 14:28:16;;;;;;;8.30;4.03;;;20.00;99.90;;;;;;5071131;28;20801;-72
2022/10/27 14:31:10;;;;;;;17.73;4.03;;;19.90;99.90;;;;;;5070752;28;20475;-71
2022/10/27 14:33:56;;;;;;;11.93;4.13;;;19.80;99.90;;;;;;5066343;28;20913;-71
2022/10/27 14:36:42;;;;;;;11.67;3.63;;;19.80;99.90;;;;;;5071504;28;20454;-71
2022/10/27 14:39:31;;;;;;;9.23;3.80;;;19.70;99.90;;;;;;5064639;28;20445;-71
2022/10/27 14:42:21;;;;;;;5.67;3.03;;;19.60;99.90;;;;;;5065568;28;20467;-72